sensor_id;sensor_type;location;lat;lon;timestamp;temperature;humidity
6164;DHT22;3114;48.362;10.994;2022-11-12T00:01:52;8.30;99.90
6164;DHT22;3114;48.362;10.994;2022-11-12T00:04:19;8.40;99.90
6164;DHT22;3114;48.362;10.994;2022-11-12T00:06:50;8.30;99.90
6164;DHT22;3114;48.362;10.994;2022-11-12T00:09:17;8.30;99.90
6164;DHT22;3114;48.362;10.994;2022-11-12T00:11:44;8.20;99.90
6164;DHT22;3114;48.362;10.994;2022-11-12T00:14:11;8.10;99.90
6164;DHT22;3114;48.362;10.994;2022-11-12T00:16:38;8.20;99.90
6164;DHT22;3114;48.362;10.994;2022-11-12T00:19:09;8.30;99.90
6164;DHT22;3114;48.362;10.994;2022-11-12T00:21:36;8.20;99.90
6164;DHT22;3114;48.362;10.994;2022-11-12T00:24:05;8.10;99.90
6164;DHT22;3114;48.362;10.994;2022-11-12T00:26:32;8.10;99.90
6164;DHT22;3114;48.362;10.994;2022-11-12T00:28:58;8.10;99.90
6164;DHT22;3114;48.362;10.994;2022-11-12T00:31:29;8.10;99.90
6164;DHT22;3114;48.362;10.994;2022-11-12T00:33:56;8.10;99.90
6164;DHT22;3114;48.362;10.994;2022-11-12T00:36:23;8.10;99.90
6164;DHT22;3114;48.362;10.994;2022-11-12T00:38:50;8.00;99.90
6164;DHT22;3114;48.362;10.994;2022-11-12T00:41:18;8.00;99.90
6164;DHT22;3114;48.362;10.994;2022-11-12T00:43:45;8.10;99.90
6164;DHT22;3114;48.362;10.994;2022-11-12T00:46:12;8.10;99.90
6164;DHT22;3114;48.362;10.994;2022-11-12T00:48:39;8.00;99.90
6164;DHT22;3114;48.362;10.994;2022-11-12T00:51:06;8.00;99.90
6164;DHT22;3114;48.362;10.994;2022-11-12T00:53:33;8.00;99.90
6164;DHT22;3114;48.362;10.994;2022-11-12T00:56:00;8.00;99.90
6164;DHT22;3114;48.362;10.994;2022-11-12T00:58:29;8.00;99.90
6164;DHT22;3114;48.362;10.994;2022-11-12T01:00:57;8.00;99.90
6164;DHT22;3114;48.362;10.994;2022-11-12T01:03:26;8.00;99.90
6164;DHT22;3114;48.362;10.994;2022-11-12T01:05:54;8.10;99.90
6164;DHT22;3114;48.362;10.994;2022-11-12T01:08:21;8.10;99.90
6164;DHT22;3114;48.362;10.994;2022-11-12T01:10:48;8.10;99.90
6164;DHT22;3114;48.362;10.994;2022-11-12T01:13:15;8.10;99.90
6164;DHT22;3114;48.362;10.994;2022-11-12T01:15:43;8.10;99.90
6164;DHT22;3114;48.362;10.994;2022-11-12T01:18:10;8.20;99.90
6164;DHT22;3114;48.362;10.994;2022-11-12T01:20:38;8.20;99.90
6164;DHT22;3114;48.362;10.994;2022-11-12T01:23:05;8.20;99.90
6164;DHT22;3114;48.362;10.994;2022-11-12T01:25:32;8.20;99.90
6164;DHT22;3114;48.362;10.994;2022-11-12T01:27:58;8.20;99.90
6164;DHT22;3114;48.362;10.994;2022-11-12T01:30:25;8.20;99.90
6164;DHT22;3114;48.362;10.994;2022-11-12T01:32:56;8.20;99.90
6164;DHT22;3114;48.362;10.994;2022-11-12T01:35:24;8.20;99.90
6164;DHT22;3114;48.362;10.994;2022-11-12T01:37:57;8.10;99.90
6164;DHT22;3114;48.362;10.994;2022-11-12T01:40:24;8.10;99.90
6164;DHT22;3114;48.362;10.994;2022-11-12T01:42:52;8.00;99.90
6164;DHT22;3114;48.362;10.994;2022-11-12T01:45:19;8.00;99.90
6164;DHT22;3114;48.362;10.994;2022-11-12T01:47:48;8.00;99.90
6164;DHT22;3114;48.362;10.994;2022-11-12T01:50:51;8.00;99.90
6164;DHT22;3114;48.362;10.994;2022-11-12T01:53:20;8.00;99.90
6164;DHT22;3114;48.362;10.994;2022-11-12T01:55:48;7.80;99.90
6164;DHT22;3114;48.362;10.994;2022-11-12T01:58:18;7.90;99.90
6164;DHT22;3114;48.362;10.994;2022-11-12T02:00:46;7.90;99.90
6164;DHT22;3114;48.362;10.994;2022-11-12T02:03:21;8.00;99.90
6164;DHT22;3114;48.362;10.994;2022-11-12T02:05:52;8.00;99.90
6164;DHT22;3114;48.362;10.994;2022-11-12T02:08:21;8.00;99.90
6164;DHT22;3114;48.362;10.994;2022-11-12T02:10:50;7.30;99.90
6164;DHT22;3114;48.362;10.994;2022-11-12T02:13:17;7.20;99.90
6164;DHT22;3114;48.362;10.994;2022-11-12T02:16:02;7.40;99.90
6164;DHT22;3114;48.362;10.994;2022-11-12T02:18:29;7.50;99.90
6164;DHT22;3114;48.362;10.994;2022-11-12T02:21:04;7.60;99.90
6164;DHT22;3114;48.362;10.994;2022-11-12T02:23:34;7.80;99.90
6164;DHT22;3114;48.362;10.994;2022-11-12T02:26:02;7.90;99.90
6164;DHT22;3114;48.362;10.994;2022-11-12T02:28:30;7.90;99.90
6164;DHT22;3114;48.362;10.994;2022-11-12T02:30:58;7.90;99.90
6164;DHT22;3114;48.362;10.994;2022-11-12T02:33:24;7.80;99.90
6164;DHT22;3114;48.362;10.994;2022-11-12T02:35:51;7.80;99.90
6164;DHT22;3114;48.362;10.994;2022-11-12T02:38:18;7.90;99.90
6164;DHT22;3114;48.362;10.994;2022-11-12T02:40:46;7.70;99.90
6164;DHT22;3114;48.362;10.994;2022-11-12T02:43:13;7.80;99.90
6164;DHT22;3114;48.362;10.994;2022-11-12T02:45:40;7.80;99.90
6164;DHT22;3114;48.362;10.994;2022-11-12T02:48:07;7.80;99.90
6164;DHT22;3114;48.362;10.994;2022-11-12T02:50:33;7.80;99.90
6164;DHT22;3114;48.362;10.994;2022-11-12T02:53:00;7.00;99.90
6164;DHT22;3114;48.362;10.994;2022-11-12T02:55:27;6.80;99.90
6164;DHT22;3114;48.362;10.994;2022-11-12T02:57:58;6.90;99.90
6164;DHT22;3114;48.362;10.994;2022-11-12T03:00:25;7.10;99.90
6164;DHT22;3114;48.362;10.994;2022-11-12T03:02:52;7.00;99.90
6164;DHT22;3114;48.362;10.994;2022-11-12T03:05:25;7.20;99.90
6164;DHT22;3114;48.362;10.994;2022-11-12T03:07:55;7.20;99.90
6164;DHT22;3114;48.362;10.994;2022-11-12T03:10:23;6.90;99.90
6164;DHT22;3114;48.362;10.994;2022-11-12T03:12:50;6.90;99.90
6164;DHT22;3114;48.362;10.994;2022-11-12T03:15:18;7.00;99.90
6164;DHT22;3114;48.362;10.994;2022-11-12T03:17:45;7.10;99.90
6164;DHT22;3114;48.362;10.994;2022-11-12T03:20:15;6.50;99.90
6164;DHT22;3114;48.362;10.994;2022-11-12T03:22:42;6.70;99.90
6164;DHT22;3114;48.362;10.994;2022-11-12T03:25:09;6.80;99.90
6164;DHT22;3114;48.362;10.994;2022-11-12T03:27:35;6.90;99.90
6164;DHT22;3114;48.362;10.994;2022-11-12T03:30:03;6.60;99.90
6164;DHT22;3114;48.362;10.994;2022-11-12T03:32:31;6.90;99.90
6164;DHT22;3114;48.362;10.994;2022-11-12T03:34:58;7.10;99.90
6164;DHT22;3114;48.362;10.994;2022-11-12T03:37:25;7.00;99.90
6164;DHT22;3114;48.362;10.994;2022-11-12T03:39:52;7.30;99.90
6164;DHT22;3114;48.362;10.994;2022-11-12T03:42:18;7.50;99.90
6164;DHT22;3114;48.362;10.994;2022-11-12T03:44:45;7.70;99.90
6164;DHT22;3114;48.362;10.994;2022-11-12T03:47:12;7.90;99.90
6164;DHT22;3114;48.362;10.994;2022-11-12T03:49:40;8.00;99.90
6164;DHT22;3114;48.362;10.994;2022-11-12T03:52:07;8.00;99.90
6164;DHT22;3114;48.362;10.994;2022-11-12T03:54:34;8.10;99.90
6164;DHT22;3114;48.362;10.994;2022-11-12T03:57:01;8.20;99.90
6164;DHT22;3114;48.362;10.994;2022-11-12T03:59:27;8.10;99.90
6164;DHT22;3114;48.362;10.994;2022-11-12T04:01:54;8.20;99.90
6164;DHT22;3114;48.362;10.994;2022-11-12T04:04:21;8.10;99.90
6164;DHT22;3114;48.362;10.994;2022-11-12T04:06:49;8.10;99.90
6164;DHT22;3114;48.362;10.994;2022-11-12T04:09:34;8.00;99.90
6164;DHT22;3114;48.362;10.994;2022-11-12T04:12:01;8.00;99.90
6164;DHT22;3114;48.362;10.994;2022-11-12T04:14:49;8.10;99.90
6164;DHT22;3114;48.362;10.994;2022-11-12T04:17:17;8.20;99.90
6164;DHT22;3114;48.362;10.994;2022-11-12T04:20:01;8.20;99.90
6164;DHT22;3114;48.362;10.994;2022-11-12T04:22:47;8.20;99.90
6164;DHT22;3114;48.362;10.994;2022-11-12T04:25:13;8.20;99.90
6164;DHT22;3114;48.362;10.994;2022-11-12T04:27:57;8.00;99.90
6164;DHT22;3114;48.362;10.994;2022-11-12T04:30:24;8.00;99.90
6164;DHT22;3114;48.362;10.994;2022-11-12T04:32:51;8.10;99.90
6164;DHT22;3114;48.362;10.994;2022-11-12T04:35:24;8.20;99.90
6164;DHT22;3114;48.362;10.994;2022-11-12T04:37:53;8.20;99.90
6164;DHT22;3114;48.362;10.994;2022-11-12T04:40:23;8.10;99.90
6164;DHT22;3114;48.362;10.994;2022-11-12T04:43:09;8.20;99.90
6164;DHT22;3114;48.362;10.994;2022-11-12T04:45:54;8.30;99.90
6164;DHT22;3114;48.362;10.994;2022-11-12T04:48:22;8.30;99.90
6164;DHT22;3114;48.362;10.994;2022-11-12T04:50:53;8.30;99.90
6164;DHT22;3114;48.362;10.994;2022-11-12T04:53:25;8.30;99.90
6164;DHT22;3114;48.362;10.994;2022-11-12T04:55:52;8.30;99.90
6164;DHT22;3114;48.362;10.994;2022-11-12T04:58:19;8.20;99.90
6164;DHT22;3114;48.362;10.994;2022-11-12T05:00:47;8.20;99.90
6164;DHT22;3114;48.362;10.994;2022-11-12T05:03:14;8.30;99.90
6164;DHT22;3114;48.362;10.994;2022-11-12T05:05:41;8.30;99.90
6164;DHT22;3114;48.362;10.994;2022-11-12T05:08:08;8.30;99.90
6164;DHT22;3114;48.362;10.994;2022-11-12T05:10:36;8.30;99.90
6164;DHT22;3114;48.362;10.994;2022-11-12T05:13:04;8.30;99.90
6164;DHT22;3114;48.362;10.994;2022-11-12T05:15:31;8.40;99.90
6164;DHT22;3114;48.362;10.994;2022-11-12T05:17:59;8.30;99.90
6164;DHT22;3114;48.362;10.994;2022-11-12T05:20:26;8.40;99.90
6164;DHT22;3114;48.362;10.994;2022-11-12T05:22:53;8.30;99.90
6164;DHT22;3114;48.362;10.994;2022-11-12T05:25:20;8.30;99.90
6164;DHT22;3114;48.362;10.994;2022-11-12T05:27:56;8.30;99.90
6164;DHT22;3114;48.362;10.994;2022-11-12T05:30:23;8.40;99.90
6164;DHT22;3114;48.362;10.994;2022-11-12T05:32:50;8.40;99.90
6164;DHT22;3114;48.362;10.994;2022-11-12T05:35:17;8.30;99.90
6164;DHT22;3114;48.362;10.994;2022-11-12T05:37:44;8.30;99.90
6164;DHT22;3114;48.362;10.994;2022-11-12T05:40:11;8.20;99.90
6164;DHT22;3114;48.362;10.994;2022-11-12T05:42:38;7.80;99.90
6164;DHT22;3114;48.362;10.994;2022-11-12T05:45:08;7.90;99.90
6164;DHT22;3114;48.362;10.994;2022-11-12T05:47:35;8.00;99.90
6164;DHT22;3114;48.362;10.994;2022-11-12T05:50:02;7.90;99.90
6164;DHT22;3114;48.362;10.994;2022-11-12T05:52:28;7.90;99.90
6164;DHT22;3114;48.362;10.994;2022-11-12T05:54:55;7.90;99.90
6164;DHT22;3114;48.362;10.994;2022-11-12T05:57:22;8.00;99.90
6164;DHT22;3114;48.362;10.994;2022-11-12T05:59:49;8.10;99.90
6164;DHT22;3114;48.362;10.994;2022-11-12T06:02:17;8.20;99.90
6164;DHT22;3114;48.362;10.994;2022-11-12T06:04:44;8.20;99.90
6164;DHT22;3114;48.362;10.994;2022-11-12T06:07:11;8.20;99.90
6164;DHT22;3114;48.362;10.994;2022-11-12T06:09:38;8.20;99.90
6164;DHT22;3114;48.362;10.994;2022-11-12T06:12:12;8.30;99.90
6164;DHT22;3114;48.362;10.994;2022-11-12T06:14:39;8.00;99.90
6164;DHT22;3114;48.362;10.994;2022-11-12T06:17:06;7.70;99.90
6164;DHT22;3114;48.362;10.994;2022-11-12T06:19:34;7.40;99.90
6164;DHT22;3114;48.362;10.994;2022-11-12T06:22:01;7.30;99.90
6164;DHT22;3114;48.362;10.994;2022-11-12T06:24:28;7.30;99.90
6164;DHT22;3114;48.362;10.994;2022-11-12T06:26:55;7.30;99.90
6164;DHT22;3114;48.362;10.994;2022-11-12T06:29:22;7.40;99.90
6164;DHT22;3114;48.362;10.994;2022-11-12T06:31:49;7.40;99.90
6164;DHT22;3114;48.362;10.994;2022-11-12T06:34:15;7.40;99.90
6164;DHT22;3114;48.362;10.994;2022-11-12T06:36:44;7.60;99.90
6164;DHT22;3114;48.362;10.994;2022-11-12T06:39:13;7.70;99.90
6164;DHT22;3114;48.362;10.994;2022-11-12T06:41:40;7.80;99.90
6164;DHT22;3114;48.362;10.994;2022-11-12T06:44:07;7.30;99.90
6164;DHT22;3114;48.362;10.994;2022-11-12T06:46:33;7.50;99.90
6164;DHT22;3114;48.362;10.994;2022-11-12T06:49:00;7.10;99.90
6164;DHT22;3114;48.362;10.994;2022-11-12T06:51:27;7.40;99.90
6164;DHT22;3114;48.362;10.994;2022-11-12T06:53:55;7.60;99.90
6164;DHT22;3114;48.362;10.994;2022-11-12T06:56:22;7.70;99.90
6164;DHT22;3114;48.362;10.994;2022-11-12T06:58:49;7.70;99.90
6164;DHT22;3114;48.362;10.994;2022-11-12T07:01:16;7.80;99.90
6164;DHT22;3114;48.362;10.994;2022-11-12T07:03:43;7.60;99.90
6164;DHT22;3114;48.362;10.994;2022-11-12T07:06:12;7.60;99.90
6164;DHT22;3114;48.362;10.994;2022-11-12T07:08:39;7.60;99.90
6164;DHT22;3114;48.362;10.994;2022-11-12T07:11:08;7.70;99.90
6164;DHT22;3114;48.362;10.994;2022-11-12T07:13:44;7.80;99.90
6164;DHT22;3114;48.362;10.994;2022-11-12T07:16:12;7.90;99.90
6164;DHT22;3114;48.362;10.994;2022-11-12T07:18:45;7.90;99.90
6164;DHT22;3114;48.362;10.994;2022-11-12T07:21:14;8.00;99.90
6164;DHT22;3114;48.362;10.994;2022-11-12T07:27:06;7.50;99.90
6164;DHT22;3114;48.362;10.994;2022-11-12T07:29:33;7.60;99.90
6164;DHT22;3114;48.362;10.994;2022-11-12T07:32:00;7.80;99.90
6164;DHT22;3114;48.362;10.994;2022-11-12T07:34:27;7.90;99.90
6164;DHT22;3114;48.362;10.994;2022-11-12T07:36:53;8.00;99.90
6164;DHT22;3114;48.362;10.994;2022-11-12T07:39:20;8.20;99.90
6164;DHT22;3114;48.362;10.994;2022-11-12T07:41:47;8.30;99.90
6164;DHT22;3114;48.362;10.994;2022-11-12T07:44:17;8.30;99.90
6164;DHT22;3114;48.362;10.994;2022-11-12T07:46:44;8.40;99.90
6164;DHT22;3114;48.362;10.994;2022-11-12T07:49:12;8.40;99.90
6164;DHT22;3114;48.362;10.994;2022-11-12T07:51:38;8.40;99.90
6164;DHT22;3114;48.362;10.994;2022-11-12T07:54:05;8.50;99.90
6164;DHT22;3114;48.362;10.994;2022-11-12T07:56:32;8.50;99.90
6164;DHT22;3114;48.362;10.994;2022-11-12T07:58:59;8.50;99.90
6164;DHT22;3114;48.362;10.994;2022-11-12T08:01:30;8.40;99.90
6164;DHT22;3114;48.362;10.994;2022-11-12T08:03:57;8.40;99.90
6164;DHT22;3114;48.362;10.994;2022-11-12T08:06:24;8.50;99.90
6164;DHT22;3114;48.362;10.994;2022-11-12T08:08:52;8.50;99.90
6164;DHT22;3114;48.362;10.994;2022-11-12T08:11:19;8.50;99.90
6164;DHT22;3114;48.362;10.994;2022-11-12T08:13:46;8.50;99.90
6164;DHT22;3114;48.362;10.994;2022-11-12T08:16:13;8.50;99.90
6164;DHT22;3114;48.362;10.994;2022-11-12T08:18:43;8.50;99.90
6164;DHT22;3114;48.362;10.994;2022-11-12T08:21:11;8.30;99.90
6164;DHT22;3114;48.362;10.994;2022-11-12T08:23:38;8.30;99.90
6164;DHT22;3114;48.362;10.994;2022-11-12T08:26:08;8.20;99.90
6164;DHT22;3114;48.362;10.994;2022-11-12T08:28:36;8.20;99.90
6164;DHT22;3114;48.362;10.994;2022-11-12T08:31:04;8.20;99.90
6164;DHT22;3114;48.362;10.994;2022-11-12T08:33:32;8.20;99.90
6164;DHT22;3114;48.362;10.994;2022-11-12T08:36:03;8.30;99.90
6164;DHT22;3114;48.362;10.994;2022-11-12T08:38:30;8.30;99.90
6164;DHT22;3114;48.362;10.994;2022-11-12T08:40:59;8.20;99.90
6164;DHT22;3114;48.362;10.994;2022-11-12T08:43:26;8.30;99.90
6164;DHT22;3114;48.362;10.994;2022-11-12T08:45:53;8.40;99.90
6164;DHT22;3114;48.362;10.994;2022-11-12T08:48:20;8.50;99.90
6164;DHT22;3114;48.362;10.994;2022-11-12T08:50:47;8.60;99.90
6164;DHT22;3114;48.362;10.994;2022-11-12T08:53:15;8.40;99.90
6164;DHT22;3114;48.362;10.994;2022-11-12T08:55:42;8.50;99.90
6164;DHT22;3114;48.362;10.994;2022-11-12T08:58:09;8.60;99.90
6164;DHT22;3114;48.362;10.994;2022-11-12T09:00:38;8.70;99.90
6164;DHT22;3114;48.362;10.994;2022-11-12T09:03:06;8.70;99.90
6164;DHT22;3114;48.362;10.994;2022-11-12T09:05:34;8.80;99.90
6164;DHT22;3114;48.362;10.994;2022-11-12T09:08:04;8.80;99.90
6164;DHT22;3114;48.362;10.994;2022-11-12T09:10:33;8.80;99.90
6164;DHT22;3114;48.362;10.994;2022-11-12T09:13:00;8.90;99.90
6164;DHT22;3114;48.362;10.994;2022-11-12T09:15:28;9.00;99.90
6164;DHT22;3114;48.362;10.994;2022-11-12T09:17:55;9.00;99.90
6164;DHT22;3114;48.362;10.994;2022-11-12T09:20:22;9.00;99.90
6164;DHT22;3114;48.362;10.994;2022-11-12T09:22:49;9.10;99.90
6164;DHT22;3114;48.362;10.994;2022-11-12T09:25:16;9.10;99.90
6164;DHT22;3114;48.362;10.994;2022-11-12T09:27:45;9.20;99.90
6164;DHT22;3114;48.362;10.994;2022-11-12T09:30:12;9.20;99.90
6164;DHT22;3114;48.362;10.994;2022-11-12T09:32:39;9.20;99.90
6164;DHT22;3114;48.362;10.994;2022-11-12T09:35:07;9.20;99.90
6164;DHT22;3114;48.362;10.994;2022-11-12T09:37:36;9.20;99.90
6164;DHT22;3114;48.362;10.994;2022-11-12T09:40:04;9.10;99.90
6164;DHT22;3114;48.362;10.994;2022-11-12T09:42:33;8.90;99.90
6164;DHT22;3114;48.362;10.994;2022-11-12T09:45:06;9.00;99.90
6164;DHT22;3114;48.362;10.994;2022-11-12T09:47:40;9.10;99.90
6164;DHT22;3114;48.362;10.994;2022-11-12T09:50:17;9.20;99.90
6164;DHT22;3114;48.362;10.994;2022-11-12T09:52:48;9.30;99.90
6164;DHT22;3114;48.362;10.994;2022-11-12T09:55:21;9.20;99.90
6164;DHT22;3114;48.362;10.994;2022-11-12T09:57:50;9.30;99.90
6164;DHT22;3114;48.362;10.994;2022-11-12T10:00:19;8.90;99.90
6164;DHT22;3114;48.362;10.994;2022-11-12T10:02:51;9.10;99.90
6164;DHT22;3114;48.362;10.994;2022-11-12T10:05:27;9.10;99.90
6164;DHT22;3114;48.362;10.994;2022-11-12T10:08:10;9.00;99.90
6164;DHT22;3114;48.362;10.994;2022-11-12T10:10:46;9.10;99.90
6164;DHT22;3114;48.362;10.994;2022-11-12T10:13:24;9.10;99.90
6164;DHT22;3114;48.362;10.994;2022-11-12T10:16:18;9.20;99.90
6164;DHT22;3114;48.362;10.994;2022-11-12T10:19:22;9.30;99.90
6164;DHT22;3114;48.362;10.994;2022-11-12T10:21:57;9.20;99.90
6164;DHT22;3114;48.362;10.994;2022-11-12T10:24:33;9.30;99.90
6164;DHT22;3114;48.362;10.994;2022-11-12T10:27:07;9.30;99.90
6164;DHT22;3114;48.362;10.994;2022-11-12T10:29:41;9.20;99.90
6164;DHT22;3114;48.362;10.994;2022-11-12T10:32:14;9.30;99.90
6164;DHT22;3114;48.362;10.994;2022-11-12T10:34:41;9.40;99.90
6164;DHT22;3114;48.362;10.994;2022-11-12T10:37:14;9.40;99.90
6164;DHT22;3114;48.362;10.994;2022-11-12T10:39:44;9.40;99.90
6164;DHT22;3114;48.362;10.994;2022-11-12T10:42:13;9.40;99.90
6164;DHT22;3114;48.362;10.994;2022-11-12T10:44:41;9.50;99.90
6164;DHT22;3114;48.362;10.994;2022-11-12T10:47:22;9.60;99.90
6164;DHT22;3114;48.362;10.994;2022-11-12T10:50:17;9.60;99.90
6164;DHT22;3114;48.362;10.994;2022-11-12T10:52:56;9.70;99.90
6164;DHT22;3114;48.362;10.994;2022-11-12T10:55:24;9.80;99.90
6164;DHT22;3114;48.362;10.994;2022-11-12T10:58:14;9.70;99.90
6164;DHT22;3114;48.362;10.994;2022-11-12T11:00:53;9.80;99.90
6164;DHT22;3114;48.362;10.994;2022-11-12T11:03:24;9.90;99.90
6164;DHT22;3114;48.362;10.994;2022-11-12T11:05:55;10.00;99.90
6164;DHT22;3114;48.362;10.994;2022-11-12T11:08:33;9.90;99.90
6164;DHT22;3114;48.362;10.994;2022-11-12T11:11:25;10.00;99.90
6164;DHT22;3114;48.362;10.994;2022-11-12T11:13:54;10.10;99.90
6164;DHT22;3114;48.362;10.994;2022-11-12T11:16:22;10.10;99.90
6164;DHT22;3114;48.362;10.994;2022-11-12T11:18:54;10.10;99.90
6164;DHT22;3114;48.362;10.994;2022-11-12T11:21:47;10.00;99.90
6164;DHT22;3114;48.362;10.994;2022-11-12T11:24:24;10.10;99.90
6164;DHT22;3114;48.362;10.994;2022-11-12T11:26:59;10.00;99.90
6164;DHT22;3114;48.362;10.994;2022-11-12T11:29:47;10.00;99.90
6164;DHT22;3114;48.362;10.994;2022-11-12T11:32:32;10.20;99.90
6164;DHT22;3114;48.362;10.994;2022-11-12T11:35:10;10.00;99.90
6164;DHT22;3114;48.362;10.994;2022-11-12T11:37:48;10.10;99.90
6164;DHT22;3114;48.362;10.994;2022-11-12T11:40:23;10.10;99.90
6164;DHT22;3114;48.362;10.994;2022-11-12T11:43:12;10.10;99.90
6164;DHT22;3114;48.362;10.994;2022-11-12T11:45:58;10.10;99.90
6164;DHT22;3114;48.362;10.994;2022-11-12T11:48:37;10.10;99.90
6164;DHT22;3114;48.362;10.994;2022-11-12T11:51:20;10.20;99.90
6164;DHT22;3114;48.362;10.994;2022-11-12T11:53:59;10.20;99.90
6164;DHT22;3114;48.362;10.994;2022-11-12T11:56:32;10.20;99.90
6164;DHT22;3114;48.362;10.994;2022-11-12T11:59:12;10.20;99.90
6164;DHT22;3114;48.362;10.994;2022-11-12T12:01:57;10.10;99.90
6164;DHT22;3114;48.362;10.994;2022-11-12T12:04:43;10.10;99.90
6164;DHT22;3114;48.362;10.994;2022-11-12T12:07:23;10.20;99.90
6164;DHT22;3114;48.362;10.994;2022-11-12T12:09:59;10.30;99.90
6164;DHT22;3114;48.362;10.994;2022-11-12T12:12:42;10.30;99.90
6164;DHT22;3114;48.362;10.994;2022-11-12T12:15:28;10.20;99.90
6164;DHT22;3114;48.362;10.994;2022-11-12T12:18:03;10.30;99.90
6164;DHT22;3114;48.362;10.994;2022-11-12T12:20:39;10.30;99.90
6164;DHT22;3114;48.362;10.994;2022-11-12T12:23:16;10.30;99.90
6164;DHT22;3114;48.362;10.994;2022-11-12T12:25:45;10.30;99.90
6164;DHT22;3114;48.362;10.994;2022-11-12T12:28:21;10.40;99.90
6164;DHT22;3114;48.362;10.994;2022-11-12T12:30:54;10.30;99.90
6164;DHT22;3114;48.362;10.994;2022-11-12T12:33:29;10.30;99.90
6164;DHT22;3114;48.362;10.994;2022-11-12T12:36:00;10.40;99.90
6164;DHT22;3114;48.362;10.994;2022-11-12T12:38:35;10.50;99.90
6164;DHT22;3114;48.362;10.994;2022-11-12T12:41:11;10.50;99.90
6164;DHT22;3114;48.362;10.994;2022-11-12T12:43:44;10.50;99.90
6164;DHT22;3114;48.362;10.994;2022-11-12T12:46:12;10.50;99.90
6164;DHT22;3114;48.362;10.994;2022-11-12T12:48:41;10.40;99.90
6164;DHT22;3114;48.362;10.994;2022-11-12T12:51:09;10.50;99.90
6164;DHT22;3114;48.362;10.994;2022-11-12T12:53:38;10.50;99.90
6164;DHT22;3114;48.362;10.994;2022-11-12T12:56:06;10.60;99.90
6164;DHT22;3114;48.362;10.994;2022-11-12T12:58:52;10.50;99.90
6164;DHT22;3114;48.362;10.994;2022-11-12T13:01:28;10.50;99.90
6164;DHT22;3114;48.362;10.994;2022-11-12T13:03:57;10.60;99.90
6164;DHT22;3114;48.362;10.994;2022-11-12T13:06:30;10.60;99.90
6164;DHT22;3114;48.362;10.994;2022-11-12T13:09:02;10.60;99.90
6164;DHT22;3114;48.362;10.994;2022-11-12T13:11:53;10.60;99.90
6164;DHT22;3114;48.362;10.994;2022-11-12T13:17:44;10.70;99.90
6164;DHT22;3114;48.362;10.994;2022-11-12T13:22:58;10.60;99.90
6164;DHT22;3114;48.362;10.994;2022-11-12T13:25:28;10.60;99.90
6164;DHT22;3114;48.362;10.994;2022-11-12T13:28:09;10.60;99.90
6164;DHT22;3114;48.362;10.994;2022-11-12T13:30:57;10.60;99.90
6164;DHT22;3114;48.362;10.994;2022-11-12T13:33:29;10.60;99.90
6164;DHT22;3114;48.362;10.994;2022-11-12T13:36:22;10.60;99.90
6164;DHT22;3114;48.362;10.994;2022-11-12T13:38:51;10.50;99.90
6164;DHT22;3114;48.362;10.994;2022-11-12T13:41:21;10.50;99.90
6164;DHT22;3114;48.362;10.994;2022-11-12T13:44:06;10.50;99.90
6164;DHT22;3114;48.362;10.994;2022-11-12T13:46:34;10.50;99.90
6164;DHT22;3114;48.362;10.994;2022-11-12T13:49:03;10.40;99.90
6164;DHT22;3114;48.362;10.994;2022-11-12T13:51:38;10.50;99.90
6164;DHT22;3114;48.362;10.994;2022-11-12T13:54:27;10.50;99.90
6164;DHT22;3114;48.362;10.994;2022-11-12T13:57:11;10.40;99.90
6164;DHT22;3114;48.362;10.994;2022-11-12T13:59:38;10.40;99.90
6164;DHT22;3114;48.362;10.994;2022-11-12T14:02:17;10.50;99.90
6164;DHT22;3114;48.362;10.994;2022-11-12T14:04:45;10.50;99.90
6164;DHT22;3114;48.362;10.994;2022-11-12T14:07:28;10.50;99.90
6164;DHT22;3114;48.362;10.994;2022-11-12T14:10:04;10.50;99.90
6164;DHT22;3114;48.362;10.994;2022-11-12T14:12:49;10.00;99.90
6164;DHT22;3114;48.362;10.994;2022-11-12T14:15:30;9.90;99.90
6164;DHT22;3114;48.362;10.994;2022-11-12T14:18:07;9.70;99.90
6164;DHT22;3114;48.362;10.994;2022-11-12T14:20:37;9.60;99.90
6164;DHT22;3114;48.362;10.994;2022-11-12T14:23:11;9.60;99.90
6164;DHT22;3114;48.362;10.994;2022-11-12T14:25:45;9.50;99.90
6164;DHT22;3114;48.362;10.994;2022-11-12T14:28:26;9.60;99.90
6164;DHT22;3114;48.362;10.994;2022-11-12T14:30:53;9.50;99.90
6164;DHT22;3114;48.362;10.994;2022-11-12T14:33:22;9.80;99.90
6164;DHT22;3114;48.362;10.994;2022-11-12T14:35:51;10.00;99.90
6164;DHT22;3114;48.362;10.994;2022-11-12T14:38:20;10.10;99.90
6164;DHT22;3114;48.362;10.994;2022-11-12T14:40:51;10.10;99.90
6164;DHT22;3114;48.362;10.994;2022-11-12T14:43:30;10.20;99.90
6164;DHT22;3114;48.362;10.994;2022-11-12T14:46:00;10.10;99.90
6164;DHT22;3114;48.362;10.994;2022-11-12T14:48:28;10.10;99.90
6164;DHT22;3114;48.362;10.994;2022-11-12T14:50:59;10.10;99.90
6164;DHT22;3114;48.362;10.994;2022-11-12T14:53:31;10.10;99.90
6164;DHT22;3114;48.362;10.994;2022-11-12T14:56:01;10.10;99.90
6164;DHT22;3114;48.362;10.994;2022-11-12T14:58:31;10.10;99.90
6164;DHT22;3114;48.362;10.994;2022-11-12T15:01:17;10.10;99.90
6164;DHT22;3114;48.362;10.994;2022-11-12T15:03:45;10.20;99.90
6164;DHT22;3114;48.362;10.994;2022-11-12T15:06:15;10.20;99.90
6164;DHT22;3114;48.362;10.994;2022-11-12T15:08:55;10.20;99.90
6164;DHT22;3114;48.362;10.994;2022-11-12T15:11:25;10.20;99.90
6164;DHT22;3114;48.362;10.994;2022-11-12T15:13:56;10.10;99.90
6164;DHT22;3114;48.362;10.994;2022-11-12T15:16:27;10.10;99.90
6164;DHT22;3114;48.362;10.994;2022-11-12T15:21:50;10.10;99.90
6164;DHT22;3114;48.362;10.994;2022-11-12T15:24:23;10.10;99.90
6164;DHT22;3114;48.362;10.994;2022-11-12T15:26:52;10.10;99.90
6164;DHT22;3114;48.362;10.994;2022-11-12T15:29:27;10.10;99.90
6164;DHT22;3114;48.362;10.994;2022-11-12T15:31:57;9.90;99.90
6164;DHT22;3114;48.362;10.994;2022-11-12T15:34:42;10.00;99.90
6164;DHT22;3114;48.362;10.994;2022-11-12T15:37:18;10.00;99.90
6164;DHT22;3114;48.362;10.994;2022-11-12T15:39:48;10.00;99.90
6164;DHT22;3114;48.362;10.994;2022-11-12T15:42:20;10.00;99.90
6164;DHT22;3114;48.362;10.994;2022-11-12T15:44:56;10.00;99.90
6164;DHT22;3114;48.362;10.994;2022-11-12T15:47:23;9.90;99.90
6164;DHT22;3114;48.362;10.994;2022-11-12T15:49:51;9.90;99.90
6164;DHT22;3114;48.362;10.994;2022-11-12T15:52:18;9.90;99.90
6164;DHT22;3114;48.362;10.994;2022-11-12T15:54:46;9.90;99.90
6164;DHT22;3114;48.362;10.994;2022-11-12T15:57:14;9.90;99.90
6164;DHT22;3114;48.362;10.994;2022-11-12T15:59:43;9.90;99.90
6164;DHT22;3114;48.362;10.994;2022-11-12T16:02:12;9.80;99.90
6164;DHT22;3114;48.362;10.994;2022-11-12T16:04:39;9.70;99.90
6164;DHT22;3114;48.362;10.994;2022-11-12T16:07:07;9.80;99.90
6164;DHT22;3114;48.362;10.994;2022-11-12T16:09:34;9.80;99.90
6164;DHT22;3114;48.362;10.994;2022-11-12T16:12:03;9.80;99.90
6164;DHT22;3114;48.362;10.994;2022-11-12T16:14:30;9.80;99.90
6164;DHT22;3114;48.362;10.994;2022-11-12T16:16:57;9.80;99.90
6164;DHT22;3114;48.362;10.994;2022-11-12T16:19:25;9.70;99.90
6164;DHT22;3114;48.362;10.994;2022-11-12T16:21:52;9.70;99.90
6164;DHT22;3114;48.362;10.994;2022-11-12T16:24:19;9.70;99.90
6164;DHT22;3114;48.362;10.994;2022-11-12T16:26:46;9.70;99.90
6164;DHT22;3114;48.362;10.994;2022-11-12T16:29:13;9.70;99.90
6164;DHT22;3114;48.362;10.994;2022-11-12T16:31:40;9.70;99.90
6164;DHT22;3114;48.362;10.994;2022-11-12T16:34:08;9.70;99.90